sensor_id;sensor_type;location;lat;lon;timestamp;pressure;altitude;pressure_sealevel;temperature;humidity
44988;BME280;35735;52.226;21.254;2023-05-08T00:03:28;101660.75;;;2.46;100.00
44988;BME280;35735;52.226;21.254;2023-05-08T00:08:29;101656.84;;;2.39;100.00
44988;BME280;35735;52.226;21.254;2023-05-08T00:13:29;101661.09;;;2.19;100.00
44988;BME280;35735;52.226;21.254;2023-05-08T00:18:30;101668.50;;;2.08;100.00
44988;BME280;35735;52.226;21.254;2023-05-08T00:23:31;101653.28;;;2.06;100.00
44988;BME280;35735;52.226;21.254;2023-05-08T00:28:32;101659.44;;;2.04;100.00
44988;BME280;35735;52.226;21.254;2023-05-08T00:33:33;101660.78;;;2.13;100.00
44988;BME280;35735;52.226;21.254;2023-05-08T00:38:34;101668.69;;;2.11;100.00
44988;BME280;35735;52.226;21.254;2023-05-08T00:43:35;101665.66;;;1.89;100.00
44988;BME280;35735;52.226;21.254;2023-05-08T00:48:37;101674.97;;;1.80;100.00
44988;BME280;35735;52.226;21.254;2023-05-08T00:53:40;101673.47;;;1.69;100.00
44988;BME280;35735;52.226;21.254;2023-05-08T00:58:42;101674.22;;;1.66;100.00
44988;BME280;35735;52.226;21.254;2023-05-08T01:03:43;101687.28;;;1.47;100.00
44988;BME280;35735;52.226;21.254;2023-05-08T01:08:44;101692.47;;;1.44;100.00
44988;BME280;35735;52.226;21.254;2023-05-08T01:13:57;101702.25;;;1.45;100.00
44988;BME280;35735;52.226;21.254;2023-05-08T01:19:38;101693.31;;;1.28;100.00
44988;BME280;35735;52.226;21.254;2023-05-08T01:25:00;101700.38;;;1.27;100.00
44988;BME280;35735;52.226;21.254;2023-05-08T01:36:00;101712.13;;;1.31;100.00
44988;BME280;35735;52.226;21.254;2023-05-08T01:41:12;101707.19;;;1.22;100.00
44988;BME280;35735;52.226;21.254;2023-05-08T01:46:21;101703.06;;;1.13;100.00
44988;BME280;35735;52.226;21.254;2023-05-08T01:51:26;101716.09;;;1.08;100.00
44988;BME280;35735;52.226;21.254;2023-05-08T01:56:28;101715.00;;;1.04;100.00
44988;BME280;35735;52.226;21.254;2023-05-08T02:01:31;101712.72;;;0.96;100.00
44988;BME280;35735;52.226;21.254;2023-05-08T02:06:33;101718.22;;;0.99;100.00
44988;BME280;35735;52.226;21.254;2023-05-08T02:11:38;101720.88;;;0.99;100.00
44988;BME280;35735;52.226;21.254;2023-05-08T02:16:40;101719.56;;;1.07;100.00
44988;BME280;35735;52.226;21.254;2023-05-08T02:21:43;101728.00;;;1.15;100.00
44988;BME280;35735;52.226;21.254;2023-05-08T02:26:45;101724.81;;;1.05;100.00
44988;BME280;35735;52.226;21.254;2023-05-08T02:31:47;101736.75;;;0.97;100.00
44988;BME280;35735;52.226;21.254;2023-05-08T02:36:49;101727.38;;;1.04;100.00
44988;BME280;35735;52.226;21.254;2023-05-08T02:41:51;101728.91;;;1.15;100.00
44988;BME280;35735;52.226;21.254;2023-05-08T02:46:55;101730.38;;;1.10;100.00
44988;BME280;35735;52.226;21.254;2023-05-08T02:57:52;101741.87;;;1.09;100.00
44988;BME280;35735;52.226;21.254;2023-05-08T03:03:12;101735.97;;;1.00;100.00
44988;BME280;35735;52.226;21.254;2023-05-08T03:08:21;101734.69;;;0.93;100.00
44988;BME280;35735;52.226;21.254;2023-05-08T03:13:26;101736.53;;;0.94;100.00
44988;BME280;35735;52.226;21.254;2023-05-08T03:18:40;101740.56;;;0.87;100.00
44988;BME280;35735;52.226;21.254;2023-05-08T03:23:43;101738.34;;;0.80;100.00
44988;BME280;35735;52.226;21.254;2023-05-08T03:28:47;101739.66;;;0.72;100.00
44988;BME280;35735;52.226;21.254;2023-05-08T03:33:51;101738.87;;;0.60;100.00
44988;BME280;35735;52.226;21.254;2023-05-08T03:38:53;101748.50;;;0.58;100.00
44988;BME280;35735;52.226;21.254;2023-05-08T03:43:55;101747.44;;;0.69;100.00
44988;BME280;35735;52.226;21.254;2023-05-08T03:48:57;101753.78;;;0.86;100.00
44988;BME280;35735;52.226;21.254;2023-05-08T03:53:59;101761.19;;;1.06;100.00
44988;BME280;35735;52.226;21.254;2023-05-08T03:59:12;101752.37;;;1.37;100.00
44988;BME280;35735;52.226;21.254;2023-05-08T04:04:27;101763.41;;;1.75;100.00
44988;BME280;35735;52.226;21.254;2023-05-08T04:09:38;101753.66;;;2.07;100.00
44988;BME280;35735;52.226;21.254;2023-05-08T04:14:48;101759.84;;;2.38;100.00
44988;BME280;35735;52.226;21.254;2023-05-08T04:19:59;101756.00;;;2.83;100.00
44988;BME280;35735;52.226;21.254;2023-05-08T04:25:03;101758.81;;;3.20;100.00
44988;BME280;35735;52.226;21.254;2023-05-08T04:30:07;101774.31;;;3.63;100.00
44988;BME280;35735;52.226;21.254;2023-05-08T04:35:08;101772.16;;;4.10;100.00
44988;BME280;35735;52.226;21.254;2023-05-08T04:40:09;101780.44;;;4.73;100.00
44988;BME280;35735;52.226;21.254;2023-05-08T04:45:10;101782.09;;;5.31;100.00
44988;BME280;35735;52.226;21.254;2023-05-08T04:50:11;101784.28;;;5.84;100.00
44988;BME280;35735;52.226;21.254;2023-05-08T04:55:11;101794.09;;;6.27;100.00
44988;BME280;35735;52.226;21.254;2023-05-08T05:00:12;101794.81;;;6.70;100.00
44988;BME280;35735;52.226;21.254;2023-05-08T05:05:13;101793.91;;;7.17;100.00
44988;BME280;35735;52.226;21.254;2023-05-08T05:10:14;101809.78;;;7.63;100.00
44988;BME280;35735;52.226;21.254;2023-05-08T05:15:14;101799.59;;;8.07;100.00
44988;BME280;35735;52.226;21.254;2023-05-08T05:20:15;101801.28;;;8.59;100.00
44988;BME280;35735;52.226;21.254;2023-05-08T05:25:15;101803.56;;;9.07;100.00
44988;BME280;35735;52.226;21.254;2023-05-08T05:30:16;101799.19;;;9.44;100.00
44988;BME280;35735;52.226;21.254;2023-05-08T05:35:17;101801.88;;;9.79;100.00
44988;BME280;35735;52.226;21.254;2023-05-08T05:40:17;101814.62;;;10.23;100.00
44988;BME280;35735;52.226;21.254;2023-05-08T05:45:18;101812.66;;;10.52;100.00
44988;BME280;35735;52.226;21.254;2023-05-08T05:50:19;101825.16;;;10.90;99.71
44988;BME280;35735;52.226;21.254;2023-05-08T05:55:20;101825.81;;;11.24;97.98
44988;BME280;35735;52.226;21.254;2023-05-08T06:00:20;101826.84;;;11.30;96.06
44988;BME280;35735;52.226;21.254;2023-05-08T06:05:22;101832.91;;;11.64;95.77
44988;BME280;35735;52.226;21.254;2023-05-08T06:10:22;101821.81;;;12.01;94.29
44988;BME280;35735;52.226;21.254;2023-05-08T06:15:23;101824.28;;;12.42;93.77
44988;BME280;35735;52.226;21.254;2023-05-08T06:20:23;101819.41;;;12.81;91.74
44988;BME280;35735;52.226;21.254;2023-05-08T06:25:24;101828.66;;;12.98;90.81
44988;BME280;35735;52.226;21.254;2023-05-08T06:30:24;101828.16;;;13.33;90.14
44988;BME280;35735;52.226;21.254;2023-05-08T06:35:25;101829.00;;;13.29;86.73
44988;BME280;35735;52.226;21.254;2023-05-08T06:40:26;101833.50;;;13.25;85.84
44988;BME280;35735;52.226;21.254;2023-05-08T06:45:26;101835.56;;;13.46;84.66
44988;BME280;35735;52.226;21.254;2023-05-08T06:50:27;101826.47;;;13.41;83.38
44988;BME280;35735;52.226;21.254;2023-05-08T06:55:27;101829.47;;;13.69;83.28
44988;BME280;35735;52.226;21.254;2023-05-08T07:00:28;101827.97;;;14.05;82.65
44988;BME280;35735;52.226;21.254;2023-05-08T07:05:28;101816.31;;;14.20;81.64
44988;BME280;35735;52.226;21.254;2023-05-08T07:10:29;101813.66;;;14.29;79.87
44988;BME280;35735;52.226;21.254;2023-05-08T07:15:30;101823.75;;;14.49;79.34
44988;BME280;35735;52.226;21.254;2023-05-08T07:20:31;101824.41;;;14.12;76.78
44988;BME280;35735;52.226;21.254;2023-05-08T07:25:31;101827.19;;;14.18;77.83
44988;BME280;35735;52.226;21.254;2023-05-08T07:30:32;101825.31;;;14.14;76.69
44988;BME280;35735;52.226;21.254;2023-05-08T07:35:33;101824.59;;;14.35;77.31
44988;BME280;35735;52.226;21.254;2023-05-08T07:40:33;101820.13;;;14.51;76.28
44988;BME280;35735;52.226;21.254;2023-05-08T07:45:34;101817.56;;;14.71;75.98
44988;BME280;35735;52.226;21.254;2023-05-08T07:50:35;101819.50;;;14.94;76.55
44988;BME280;35735;52.226;21.254;2023-05-08T07:55:35;101823.22;;;15.28;74.57
44988;BME280;35735;52.226;21.254;2023-05-08T08:00:36;101825.06;;;15.32;72.59
44988;BME280;35735;52.226;21.254;2023-05-08T08:05:36;101822.22;;;14.94;71.41
44988;BME280;35735;52.226;21.254;2023-05-08T08:10:37;101823.09;;;14.93;72.45
44988;BME280;35735;52.226;21.254;2023-05-08T08:15:37;101822.22;;;14.97;72.94
44988;BME280;35735;52.226;21.254;2023-05-08T08:20:38;101817.53;;;14.67;71.51
44988;BME280;35735;52.226;21.254;2023-05-08T08:25:39;101816.50;;;14.49;69.39
44988;BME280;35735;52.226;21.254;2023-05-08T08:30:39;101821.59;;;14.03;71.17
44988;BME280;35735;52.226;21.254;2023-05-08T08:35:40;101817.28;;;14.30;69.75
44988;BME280;35735;52.226;21.254;2023-05-08T08:40:41;101818.12;;;14.19;70.64
44988;BME280;35735;52.226;21.254;2023-05-08T08:45:41;101812.69;;;14.19;71.09
44988;BME280;35735;52.226;21.254;2023-05-08T08:50:43;101808.09;;;14.09;70.08
44988;BME280;35735;52.226;21.254;2023-05-08T08:55:49;101795.66;;;14.46;69.40
44988;BME280;35735;52.226;21.254;2023-05-08T09:00:50;101796.84;;;14.90;67.27
44988;BME280;35735;52.226;21.254;2023-05-08T09:05:50;101796.75;;;14.75;64.97
44988;BME280;35735;52.226;21.254;2023-05-08T09:10:54;101795.03;;;14.92;63.89
44988;BME280;35735;52.226;21.254;2023-05-08T09:15:56;101791.47;;;15.18;65.39
44988;BME280;35735;52.226;21.254;2023-05-08T09:20:58;101788.81;;;15.56;63.84
44988;BME280;35735;52.226;21.254;2023-05-08T09:25:58;101790.63;;;15.42;61.82
44988;BME280;35735;52.226;21.254;2023-05-08T09:30:59;101791.53;;;15.43;61.55
44988;BME280;35735;52.226;21.254;2023-05-08T09:35:59;101791.53;;;15.58;59.89
44988;BME280;35735;52.226;21.254;2023-05-08T09:41:12;101780.69;;;15.70;57.67
44988;BME280;35735;52.226;21.254;2023-05-08T09:51:19;101781.59;;;15.57;58.01
44988;BME280;35735;52.226;21.254;2023-05-08T09:56:34;101777.03;;;15.74;57.71
44988;BME280;35735;52.226;21.254;2023-05-08T10:01:36;101763.44;;;16.16;56.52
44988;BME280;35735;52.226;21.254;2023-05-08T10:06:36;101768.91;;;15.95;54.92
44988;BME280;35735;52.226;21.254;2023-05-08T10:11:41;101764.34;;;15.98;57.23
44988;BME280;35735;52.226;21.254;2023-05-08T10:16:50;101766.19;;;16.02;56.32
44988;BME280;35735;52.226;21.254;2023-05-08T10:21:53;101758.87;;;16.26;55.69
44988;BME280;35735;52.226;21.254;2023-05-08T10:26:56;101751.59;;;16.37;54.80
44988;BME280;35735;52.226;21.254;2023-05-08T10:31:58;101757.00;;;16.49;53.75
44988;BME280;35735;52.226;21.254;2023-05-08T10:36:59;101751.53;;;16.46;54.04
44988;BME280;35735;52.226;21.254;2023-05-08T10:42:01;101746.16;;;16.33;56.23
44988;BME280;35735;52.226;21.254;2023-05-08T10:47:19;101748.00;;;16.01;54.55
44988;BME280;35735;52.226;21.254;2023-05-08T11:03:23;101733.50;;;16.02;55.03
44988;BME280;35735;52.226;21.254;2023-05-08T11:08:28;101725.34;;;15.95;53.08
44988;BME280;35735;52.226;21.254;2023-05-08T11:13:37;101735.25;;;16.22;53.26
44988;BME280;35735;52.226;21.254;2023-05-08T11:24:34;101724.41;;;16.03;53.37
44988;BME280;35735;52.226;21.254;2023-05-08T11:29:34;101718.94;;;16.16;53.78
44988;BME280;35735;52.226;21.254;2023-05-08T11:39:41;101715.37;;;15.80;52.17
44988;BME280;35735;52.226;21.254;2023-05-08T11:44:42;101722.63;;;15.59;53.07
44988;BME280;35735;52.226;21.254;2023-05-08T11:49:43;101723.50;;;15.26;52.41
44988;BME280;35735;52.226;21.254;2023-05-08T11:54:43;101717.16;;;15.25;53.66
44988;BME280;35735;52.226;21.254;2023-05-08T11:59:48;101708.97;;;15.28;52.88
44988;BME280;35735;52.226;21.254;2023-05-08T12:04:49;101713.47;;;15.05;53.12
44988;BME280;35735;52.226;21.254;2023-05-08T12:09:50;101704.44;;;15.19;53.85
44988;BME280;35735;52.226;21.254;2023-05-08T12:14:50;101706.25;;;15.16;50.42
44988;BME280;35735;52.226;21.254;2023-05-08T12:19:53;101718.91;;;15.00;52.60
44988;BME280;35735;52.226;21.254;2023-05-08T12:24:54;101691.75;;;15.14;53.22
44988;BME280;35735;52.226;21.254;2023-05-08T12:29:56;101699.00;;;15.09;52.24
44988;BME280;35735;52.226;21.254;2023-05-08T12:34:57;101686.31;;;15.25;52.78
44988;BME280;35735;52.226;21.254;2023-05-08T12:39:58;101689.03;;;15.48;53.09
44988;BME280;35735;52.226;21.254;2023-05-08T12:44:58;101681.78;;;15.51;51.42
44988;BME280;35735;52.226;21.254;2023-05-08T12:49:59;101670.00;;;15.48;50.74
44988;BME280;35735;52.226;21.254;2023-05-08T12:54:59;101673.63;;;15.37;50.08
44988;BME280;35735;52.226;21.254;2023-05-08T13:00:03;101662.75;;;15.41;51.04
44988;BME280;35735;52.226;21.254;2023-05-08T13:05:04;101670.91;;;15.44;50.37
44988;BME280;35735;52.226;21.254;2023-05-08T13:10:06;101679.06;;;15.41;47.88
44988;BME280;35735;52.226;21.254;2023-05-08T13:15:07;101659.12;;;15.14;48.85
44988;BME280;35735;52.226;21.254;2023-05-08T13:20:08;101662.75;;;15.22;49.17
44988;BME280;35735;52.226;21.254;2023-05-08T13:25:09;101650.97;;;15.17;49.50
44988;BME280;35735;52.226;21.254;2023-05-08T13:30:11;101637.34;;;15.28;49.75
44988;BME280;35735;52.226;21.254;2023-05-08T13:35:12;101648.25;;;15.37;50.18
44988;BME280;35735;52.226;21.254;2023-05-08T13:40:13;101637.34;;;15.32;51.14
44988;BME280;35735;52.226;21.254;2023-05-08T13:45:14;101633.72;;;15.46;51.19
44988;BME280;35735;52.226;21.254;2023-05-08T13:50:15;101630.97;;;15.55;51.54
44988;BME280;35735;52.226;21.254;2023-05-08T13:55:17;101624.62;;;15.53;50.61
44988;BME280;35735;52.226;21.254;2023-05-08T14:00:18;101629.19;;;15.46;49.55
44988;BME280;35735;52.226;21.254;2023-05-08T14:05:19;101631.94;;;15.35;49.71
44988;BME280;35735;52.226;21.254;2023-05-08T14:10:19;101620.13;;;15.21;50.74
44988;BME280;35735;52.226;21.254;2023-05-08T14:15:20;101625.56;;;15.29;51.07
44988;BME280;35735;52.226;21.254;2023-05-08T14:20:20;101615.59;;;15.23;50.81
44988;BME280;35735;52.226;21.254;2023-05-08T14:25:21;101613.78;;;15.19;52.55
44988;BME280;35735;52.226;21.254;2023-05-08T14:30:22;101618.34;;;15.17;49.75
44988;BME280;35735;52.226;21.254;2023-05-08T14:35:22;101613.78;;;15.16;50.05
44988;BME280;35735;52.226;21.254;2023-05-08T14:40:23;101617.41;;;15.18;50.92
44988;BME280;35735;52.226;21.254;2023-05-08T14:45:23;101612.87;;;15.09;49.88
44988;BME280;35735;52.226;21.254;2023-05-08T14:50:24;101605.63;;;14.94;49.73
44988;BME280;35735;52.226;21.254;2023-05-08T14:55:25;101608.34;;;14.97;51.32
44988;BME280;35735;52.226;21.254;2023-05-08T15:00:25;101614.69;;;14.98;50.25
44988;BME280;35735;52.226;21.254;2023-05-08T15:05:26;101604.72;;;14.89;50.88
44988;BME280;35735;52.226;21.254;2023-05-08T15:10:26;101612.84;;;14.83;50.03
44988;BME280;35735;52.226;21.254;2023-05-08T15:15:27;101613.75;;;14.79;49.46
44988;BME280;35735;52.226;21.254;2023-05-08T15:20:28;101606.50;;;14.75;49.49
44988;BME280;35735;52.226;21.254;2023-05-08T15:25:28;101615.56;;;14.74;49.68
44988;BME280;35735;52.226;21.254;2023-05-08T15:30:29;101602.84;;;14.70;50.11
44988;BME280;35735;52.226;21.254;2023-05-08T15:35:30;101611.94;;;14.78;50.87
44988;BME280;35735;52.226;21.254;2023-05-08T15:40:30;101604.69;;;14.86;50.83
44988;BME280;35735;52.226;21.254;2023-05-08T15:45:31;101607.44;;;14.91;51.01
44988;BME280;35735;52.226;21.254;2023-05-08T15:50:31;101607.44;;;14.91;49.11
44988;BME280;35735;52.226;21.254;2023-05-08T15:55:32;101602.91;;;14.82;48.70
44988;BME280;35735;52.226;21.254;2023-05-08T16:00:32;101602.87;;;14.73;47.46
44988;BME280;35735;52.226;21.254;2023-05-08T16:05:33;101602.81;;;14.57;47.99
44988;BME280;35735;52.226;21.254;2023-05-08T16:10:34;101599.16;;;14.46;48.63
44988;BME280;35735;52.226;21.254;2023-05-08T16:15:34;101596.44;;;14.48;50.27
44988;BME280;35735;52.226;21.254;2023-05-08T16:20:35;101590.16;;;14.59;50.38
44988;BME280;35735;52.226;21.254;2023-05-08T16:25:35;101589.28;;;14.63;50.54
44988;BME280;35735;52.226;21.254;2023-05-08T16:30:36;101586.53;;;14.67;51.48
44988;BME280;35735;52.226;21.254;2023-05-08T16:35:38;101586.53;;;14.67;50.75
44988;BME280;35735;52.226;21.254;2023-05-08T16:40:39;101586.56;;;14.63;51.83
44988;BME280;35735;52.226;21.254;2023-05-08T16:45:39;101586.56;;;14.63;51.88
44988;BME280;35735;52.226;21.254;2023-05-08T16:50:40;101588.34;;;14.61;51.49
44988;BME280;35735;52.226;21.254;2023-05-08T16:55:41;101597.44;;;14.60;51.35
44988;BME280;35735;52.226;21.254;2023-05-08T17:00:41;101597.38;;;14.57;51.46
44988;BME280;35735;52.226;21.254;2023-05-08T17:05:42;101593.72;;;14.48;51.19
44988;BME280;35735;52.226;21.254;2023-05-08T17:10:42;101602.72;;;14.30;51.27
44988;BME280;35735;52.226;21.254;2023-05-08T17:15:43;101596.34;;;14.17;51.43
44988;BME280;35735;52.226;21.254;2023-05-08T17:20:43;101609.00;;;14.15;51.82
44988;BME280;35735;52.226;21.254;2023-05-08T17:25:44;101603.53;;;14.05;51.31
44988;BME280;35735;52.226;21.254;2023-05-08T17:30:45;101601.69;;;13.95;51.71
44988;BME280;35735;52.226;21.254;2023-05-08T17:35:45;101599.84;;;13.91;51.61
44988;BME280;35735;52.226;21.254;2023-05-08T17:40:46;101604.34;;;13.87;52.13
44988;BME280;35735;52.226;21.254;2023-05-08T17:45:46;101603.47;;;13.87;52.66
44988;BME280;35735;52.226;21.254;2023-05-08T17:50:47;101607.94;;;13.80;54.52
44988;BME280;35735;52.226;21.254;2023-05-08T17:55:47;101605.22;;;13.77;55.62
44988;BME280;35735;52.226;21.254;2023-05-08T18:00:48;101613.28;;;13.68;58.93
44988;BME280;35735;52.226;21.254;2023-05-08T18:05:49;101611.38;;;13.48;60.90
44988;BME280;35735;52.226;21.254;2023-05-08T18:10:49;101620.22;;;13.29;62.90
44988;BME280;35735;52.226;21.254;2023-05-08T18:15:50;101620.94;;;13.08;64.80
44988;BME280;35735;52.226;21.254;2023-05-08T18:20:50;101624.31;;;12.81;66.36
44988;BME280;35735;52.226;21.254;2023-05-08T18:25:51;101627.66;;;12.55;68.12
44988;BME280;35735;52.226;21.254;2023-05-08T18:30:51;101633.63;;;12.26;68.67
44988;BME280;35735;52.226;21.254;2023-05-08T18:35:52;101638.62;;;11.95;70.67
44988;BME280;35735;52.226;21.254;2023-05-08T18:40:53;101648.19;;;11.72;71.97
44988;BME280;35735;52.226;21.254;2023-05-08T18:45:53;101646.00;;;11.44;73.17
44988;BME280;35735;52.226;21.254;2023-05-08T18:50:54;101646.44;;;11.19;74.53
44988;BME280;35735;52.226;21.254;2023-05-08T18:55:55;101657.81;;;10.98;75.15
44988;BME280;35735;52.226;21.254;2023-05-08T19:00:56;101671.78;;;10.75;76.44
44988;BME280;35735;52.226;21.254;2023-05-08T19:05:57;101676.63;;;10.46;77.59
44988;BME280;35735;52.226;21.254;2023-05-08T19:10:58;101678.88;;;10.27;78.84
44988;BME280;35735;52.226;21.254;2023-05-08T19:15:58;101683.84;;;10.07;79.68
44988;BME280;35735;52.226;21.254;2023-05-08T19:21:00;101673.34;;;9.80;81.09
44988;BME280;35735;52.226;21.254;2023-05-08T19:26:00;101690.56;;;9.49;82.22
44988;BME280;35735;52.226;21.254;2023-05-08T19:31:01;101684.78;;;9.33;83.17
44988;BME280;35735;52.226;21.254;2023-05-08T19:36:02;101686.12;;;9.14;83.29
44988;BME280;35735;52.226;21.254;2023-05-08T19:41:03;101675.69;;;8.93;84.16
44988;BME280;35735;52.226;21.254;2023-05-08T19:46:03;101677.75;;;8.70;85.03
44988;BME280;35735;52.226;21.254;2023-05-08T19:51:05;101679.88;;;8.50;85.54
44988;BME280;35735;52.226;21.254;2023-05-08T19:56:06;101681.94;;;8.30;86.53
44988;BME280;35735;52.226;21.254;2023-05-08T20:01:07;101667.25;;;8.17;87.08
44988;BME280;35735;52.226;21.254;2023-05-08T20:06:07;101666.81;;;8.03;87.68
44988;BME280;35735;52.226;21.254;2023-05-08T20:11:08;101666.44;;;7.91;88.01
44988;BME280;35735;52.226;21.254;2023-05-08T20:16:08;101660.72;;;7.78;88.48
44988;BME280;35735;52.226;21.254;2023-05-08T20:21:09;101659.34;;;7.64;88.97
44988;BME280;35735;52.226;21.254;2023-05-08T20:26:10;101660.16;;;7.61;89.46
44988;BME280;35735;52.226;21.254;2023-05-08T20:31:10;101659.00;;;7.53;90.08
44988;BME280;35735;52.226;21.254;2023-05-08T20:36:11;101665.72;;;7.39;90.72
44988;BME280;35735;52.226;21.254;2023-05-08T20:41:11;101662.59;;;7.27;91.24
44988;BME280;35735;52.226;21.254;2023-05-08T20:46:12;101665.22;;;7.23;91.80
44988;BME280;35735;52.226;21.254;2023-05-08T20:51:13;101656.16;;;7.21;92.26
44988;BME280;35735;52.226;21.254;2023-05-08T20:56:13;101661.34;;;7.15;92.36
44988;BME280;35735;52.226;21.254;2023-05-08T21:01:14;101671.47;;;6.97;92.73
44988;BME280;35735;52.226;21.254;2023-05-08T21:06:14;101667.44;;;6.84;93.21
44988;BME280;35735;52.226;21.254;2023-05-08T21:11:15;101671.38;;;6.70;93.82
44988;BME280;35735;52.226;21.254;2023-05-08T21:16:15;101672.94;;;6.63;94.33
44988;BME280;35735;52.226;21.254;2023-05-08T21:21:17;101675.62;;;6.63;94.37
44988;BME280;35735;52.226;21.254;2023-05-08T21:26:18;101671.00;;;6.59;94.85
44988;BME280;35735;52.226;21.254;2023-05-08T21:31:18;101669.47;;;6.41;95.08
44988;BME280;35735;52.226;21.254;2023-05-08T21:36:19;101663.53;;;6.26;95.44
44988;BME280;35735;52.226;21.254;2023-05-08T21:41:19;101661.75;;;6.02;96.19
44988;BME280;35735;52.226;21.254;2023-05-08T21:46:20;101665.41;;;5.82;96.94
44988;BME280;35735;52.226;21.254;2023-05-08T21:51:20;101659.53;;;5.69;97.47
44988;BME280;35735;52.226;21.254;2023-05-08T21:56:21;101652.38;;;5.68;97.62
44988;BME280;35735;52.226;21.254;2023-05-08T22:01:23;101662.59;;;5.56;97.92
44988;BME280;35735;52.226;21.254;2023-05-08T22:06:23;101661.13;;;5.64;98.41
44988;BME280;35735;52.226;21.254;2023-05-08T22:11:24;101658.72;;;5.70;98.48
44988;BME280;35735;52.226;21.254;2023-05-08T22:16:24;101662.59;;;5.56;98.57
44988;BME280;35735;52.226;21.254;2023-05-08T22:21:25;101659.22;;;5.39;98.83
44988;BME280;35735;52.226;21.254;2023-05-08T22:26:26;101662.44;;;5.30;99.32
44988;BME280;35735;52.226;21.254;2023-05-08T22:31:26;101652.47;;;5.26;99.45
44988;BME280;35735;52.226;21.254;2023-05-08T22:36:27;101660.44;;;5.25;99.54
44988;BME280;35735;52.226;21.254;2023-05-08T22:41:28;101657.03;;;5.08;99.87
44988;BME280;35735;52.226;21.254;2023-05-08T22:46:29;101647.84;;;5.01;100.00
44988;BME280;35735;52.226;21.254;2023-05-08T22:51:31;101649.75;;;5.04;100.00
44988;BME280;35735;52.226;21.254;2023-05-08T22:56:32;101653.25;;;5.03;100.00
44988;BME280;35735;52.226;21.254;2023-05-08T23:01:32;101653.34;;;4.83;100.00
44988;BME280;35735;52.226;21.254;2023-05-08T23:06:33;101658.16;;;4.71;100.00
44988;BME280;35735;52.226;21.254;2023-05-08T23:11:33;101654.81;;;4.55;100.00
44988;BME280;35735;52.226;21.254;2023-05-08T23:16:34;101654.66;;;4.52;100.00
44988;BME280;35735;52.226;21.254;2023-05-08T23:21:34;101652.84;;;4.51;100.00
44988;BME280;35735;52.226;21.254;2023-05-08T23:26:35;101661.66;;;4.29;100.00
44988;BME280;35735;52.226;21.254;2023-05-08T23:31:36;101659.91;;;4.10;100.00
44988;BME280;35735;52.226;21.254;2023-05-08T23:36:36;101654.84;;;3.97;100.00
44988;BME280;35735;52.226;21.254;2023-05-08T23:41:37;101652.16;;;3.97;100.00
44988;BME280;35735;52.226;21.254;2023-05-08T23:46:37;101648.78;;;4.01;100.00
44988;BME280;35735;52.226;21.254;2023-05-08T23:51:38;101648.22;;;3.88;100.00
44988;BME280;35735;52.226;21.254;2023-05-08T23:56:38;101658.25;;;3.94;100.00
